createdAt,value
2022-10-15T00:01:13.553Z,16.34
2022-10-15T00:06:19.639Z,14.85
2022-10-15T00:11:26.105Z,16.15
2022-10-15T00:16:29.715Z,16.94
2022-10-15T00:21:32.531Z,17.00
2022-10-15T00:26:35.288Z,15.16
2022-10-15T00:31:38.172Z,15.84
2022-10-15T00:36:40.893Z,16.98
2022-10-15T00:41:44.963Z,17.30
2022-10-15T00:46:50.927Z,15.59
2022-10-15T00:52:03.248Z,14.96
2022-10-15T00:57:07.961Z,16.57
2022-10-15T01:02:11.945Z,17.29
2022-10-15T01:12:38.201Z,14.85
2022-10-15T01:18:03.414Z,16.29
2022-10-15T01:23:22.386Z,17.11
2022-10-15T01:28:49.774Z,16.10
2022-10-15T01:34:03.583Z,15.13
2022-10-15T01:39:12.340Z,16.50
2022-10-15T01:44:23.871Z,16.93
2022-10-15T01:49:31.604Z,15.10
2022-10-15T01:54:35.743Z,15.01
2022-10-15T01:59:38.499Z,16.34
2022-10-15T02:04:41.339Z,16.84
2022-10-15T02:10:05.910Z,15.68
2022-10-15T02:15:23.528Z,14.92
2022-10-15T02:20:41.627Z,16.25
2022-10-15T02:25:46.260Z,16.80
2022-10-15T02:30:53.309Z,15.73
2022-10-15T02:35:58.126Z,14.65
2022-10-15T02:41:02.186Z,16.13
2022-10-15T02:46:05.598Z,16.78
2022-10-15T02:51:08.327Z,15.33
2022-10-15T02:56:11.002Z,14.68
2022-10-15T03:01:13.866Z,15.92
2022-10-15T03:06:17.026Z,16.43
2022-10-15T03:11:19.752Z,16.17
2022-10-15T03:16:22.622Z,14.41
2022-10-15T03:21:25.311Z,15.48
2022-10-15T03:26:27.981Z,16.30
2022-10-15T03:31:30.687Z,16.57
2022-10-15T03:36:33.446Z,14.78
2022-10-15T03:41:36.198Z,14.85
2022-10-15T03:46:38.956Z,16.07
2022-10-15T03:51:41.629Z,16.61
2022-10-15T03:56:44.385Z,16.09
2022-10-15T04:01:47.067Z,14.12
2022-10-15T04:06:49.764Z,15.06
2022-10-15T04:11:52.439Z,16.35
2022-10-15T04:16:56.484Z,16.74
2022-10-15T04:21:59.415Z,14.96
2022-10-15T04:27:03.012Z,15.00
2022-10-15T04:32:05.748Z,16.40
2022-10-15T04:37:08.474Z,16.73
2022-10-15T04:42:11.166Z,14.89
2022-10-15T04:47:14.005Z,14.89
2022-10-15T04:52:16.675Z,16.37
2022-10-15T04:57:19.492Z,16.92
2022-10-15T05:02:22.786Z,15.30
2022-10-15T05:07:26.649Z,14.62
2022-10-15T05:12:29.765Z,16.22
2022-10-15T05:17:32.499Z,16.93
2022-10-15T05:22:35.327Z,15.89
2022-10-15T05:27:38.025Z,14.94
2022-10-15T05:32:40.731Z,16.37
2022-10-15T05:37:43.494Z,16.91
2022-10-15T05:47:56.073Z,14.50
2022-10-15T05:52:58.763Z,16.15
2022-10-15T05:58:03.387Z,17.01
2022-10-15T06:03:06.108Z,16.44
2022-10-15T06:08:08.829Z,14.74
2022-10-15T06:13:12.421Z,16.01
2022-10-15T06:18:17.185Z,17.30
2022-10-15T06:23:21.764Z,16.62
2022-10-15T06:28:24.517Z,15.22
2022-10-15T06:33:28.330Z,16.75
2022-10-15T06:38:31.088Z,17.36
2022-10-15T06:43:35.388Z,15.63
2022-10-15T06:48:38.382Z,16.26
2022-10-15T06:53:45.243Z,17.48
2022-10-15T06:58:47.913Z,16.06
2022-10-15T07:03:51.966Z,15.50
2022-10-15T07:08:54.692Z,17.14
2022-10-15T07:13:58.304Z,17.43
2022-10-15T07:19:01.020Z,15.79
2022-10-15T07:24:03.937Z,16.41
2022-10-15T07:29:06.917Z,18.10
2022-10-15T07:34:09.691Z,16.97
2022-10-15T07:39:12.453Z,16.65
2022-10-15T07:44:15.182Z,18.40
2022-10-15T07:49:17.997Z,17.57
2022-10-15T07:54:20.805Z,16.80
2022-10-15T07:59:23.705Z,18.19
2022-10-15T08:04:26.425Z,20.22
2022-10-15T08:09:29.131Z,19.43
2022-10-15T08:14:31.902Z,20.09
2022-10-15T08:19:34.664Z,20.86
2022-10-15T08:24:37.426Z,21.41
2022-10-15T08:29:40.084Z,21.92
2022-10-15T08:34:42.869Z,22.17
2022-10-15T08:39:45.681Z,22.41
2022-10-15T08:44:53.681Z,22.46
2022-10-15T08:50:02.573Z,21.98
2022-10-15T08:55:05.563Z,21.04
2022-10-15T09:00:11.766Z,19.76
2022-10-15T09:05:20.535Z,18.51
2022-10-15T09:10:50.203Z,17.64
2022-10-15T09:16:02.514Z,18.20
2022-10-15T09:21:06.003Z,19.40
2022-10-15T09:26:43.705Z,17.94
2022-10-15T09:32:09.166Z,17.00
2022-10-15T09:37:18.942Z,18.63
2022-10-15T09:42:41.809Z,19.44
2022-10-15T09:47:45.171Z,18.10
2022-10-15T09:53:13.222Z,17.26
2022-10-15T09:58:26.590Z,17.94
2022-10-15T10:03:32.561Z,19.37
2022-10-15T10:08:39.930Z,18.17
2022-10-15T10:13:48.741Z,17.45
2022-10-15T10:19:02.870Z,18.69
2022-10-15T10:24:30.244Z,19.79
2022-10-15T10:29:40.033Z,18.28
2022-10-15T10:34:46.580Z,17.51
2022-10-15T10:39:59.319Z,18.12
2022-10-15T10:45:23.818Z,19.65
2022-10-15T10:50:33.568Z,18.54
2022-10-15T10:55:40.148Z,17.95
2022-10-15T11:00:45.966Z,19.33
2022-10-15T11:05:54.000Z,19.65
2022-10-15T11:11:05.586Z,18.50
2022-10-15T11:16:29.477Z,17.73
2022-10-15T11:22:05.724Z,18.23
2022-10-15T11:27:17.917Z,20.12
2022-10-15T11:32:23.290Z,19.10
2022-10-15T11:37:40.087Z,18.15
2022-10-15T11:42:53.261Z,17.68
2022-10-15T11:48:23.483Z,18.71
2022-10-15T11:53:32.489Z,20.70
2022-10-15T11:58:41.999Z,19.72
2022-10-15T12:04:02.506Z,18.80
2022-10-15T12:09:07.225Z,18.19
2022-10-15T12:14:22.346Z,19.04
2022-10-15T12:19:45.659Z,20.36
2022-10-15T12:24:49.005Z,19.11
2022-10-15T12:30:00.665Z,18.42
2022-10-15T12:35:07.293Z,19.13
2022-10-15T12:40:22.586Z,20.44
2022-10-15T12:45:29.299Z,19.33
2022-10-15T12:50:35.246Z,18.72
2022-10-15T12:55:39.746Z,18.37
2022-10-15T13:00:43.331Z,19.07
2022-10-15T13:05:47.893Z,20.41
2022-10-15T13:11:00.704Z,19.29
2022-10-15T13:16:08.814Z,18.61
2022-10-15T13:21:13.808Z,19.19
2022-10-15T13:26:21.284Z,20.91
2022-10-15T13:31:31.089Z,19.72
2022-10-15T13:36:35.302Z,18.63
2022-10-15T13:41:42.687Z,19.04
2022-10-15T13:46:45.383Z,21.12
2022-10-15T13:51:51.893Z,20.49
2022-10-15T13:56:57.944Z,19.03
2022-10-15T14:02:04.565Z,18.13
2022-10-15T14:07:24.747Z,18.74
2022-10-15T14:12:27.803Z,20.71
2022-10-15T14:17:33.224Z,20.01
2022-10-15T14:22:36.304Z,18.51
2022-10-15T14:27:45.784Z,18.73
2022-10-15T14:32:52.941Z,20.70
2022-10-15T14:38:15.394Z,20.84
2022-10-15T14:43:19.279Z,19.14
2022-10-15T14:48:34.150Z,19.11
2022-10-15T14:53:44.335Z,20.89
2022-10-15T14:58:52.404Z,20.13
2022-10-15T15:03:57.054Z,18.55
2022-10-15T15:08:59.909Z,18.89
2022-10-15T15:14:03.772Z,20.65
2022-10-15T15:19:09.501Z,20.18
2022-10-15T15:24:12.361Z,18.49
2022-10-15T15:29:15.349Z,18.51
2022-10-15T15:34:18.167Z,20.33
2022-10-15T15:39:20.866Z,20.22
2022-10-15T15:44:23.549Z,18.53
2022-10-15T15:49:26.372Z,18.54
2022-10-15T15:54:29.161Z,20.30
2022-10-15T15:59:33.077Z,19.92
2022-10-15T16:04:38.208Z,18.23
2022-10-15T16:09:41.729Z,18.25
2022-10-15T16:14:44.470Z,20.06
2022-10-15T16:19:47.228Z,20.23
2022-10-15T16:24:51.346Z,18.56
2022-10-15T16:29:54.160Z,18.50
2022-10-15T16:34:56.896Z,20.28
2022-10-15T16:39:59.683Z,20.28
2022-10-15T16:45:02.725Z,18.54
2022-10-15T16:50:06.202Z,18.46
2022-10-15T16:55:09.461Z,20.25
2022-10-15T17:00:12.514Z,20.28
2022-10-15T17:05:15.256Z,18.51
2022-10-15T17:10:19.255Z,18.39
2022-10-15T17:15:24.005Z,20.17
2022-10-15T17:20:26.670Z,20.23
2022-10-15T17:25:29.365Z,18.48
2022-10-15T17:30:35.502Z,18.74
2022-10-15T17:35:38.325Z,20.37
2022-10-15T17:40:42.311Z,20.87
2022-10-15T17:45:45.045Z,19.31
2022-10-15T17:50:47.709Z,18.86
2022-10-15T17:55:50.482Z,20.36
2022-10-15T18:00:56.423Z,20.98
2022-10-15T18:06:06.740Z,19.72
2022-10-15T18:11:11.521Z,19.51
2022-10-15T18:16:14.264Z,20.67
2022-10-15T18:21:18.816Z,21.20
2022-10-15T18:26:22.382Z,20.74
2022-10-15T18:31:26.409Z,18.78
2022-10-15T18:36:31.455Z,18.89
2022-10-15T18:41:35.867Z,20.41
2022-10-15T18:46:42.309Z,21.06
2022-10-15T18:51:46.272Z,20.54
2022-10-15T18:56:48.995Z,19.02
2022-10-15T19:01:51.850Z,20.19
2022-10-15T19:06:55.004Z,20.46
2022-10-15T19:11:58.628Z,18.65
2022-10-15T19:17:01.342Z,18.85
2022-10-15T19:22:04.167Z,20.41
2022-10-15T19:27:07.020Z,20.51
2022-10-15T19:32:11.040Z,18.69
2022-10-15T19:37:13.850Z,18.51
2022-10-15T19:42:16.801Z,20.20
2022-10-15T19:47:21.317Z,20.91
2022-10-15T19:52:24.115Z,19.51
2022-10-15T19:57:26.982Z,18.91
2022-10-15T20:02:30.190Z,20.38
2022-10-15T20:07:32.985Z,20.45
2022-10-15T20:12:36.769Z,18.72
2022-10-15T20:17:39.524Z,19.55
2022-10-15T20:22:42.310Z,20.80
2022-10-15T20:27:44.996Z,20.12
2022-10-15T20:32:48.152Z,18.44
2022-10-15T20:37:50.904Z,19.42
2022-10-15T20:42:53.757Z,20.67
2022-10-15T20:47:58.352Z,20.28
2022-10-15T20:53:02.957Z,18.42
2022-10-15T20:58:05.731Z,18.39
2022-10-15T21:03:08.949Z,20.09
2022-10-15T21:08:11.781Z,20.15
2022-10-15T21:13:14.501Z,18.32
2022-10-15T21:18:17.173Z,18.17
2022-10-15T21:23:20.214Z,19.90
2022-10-15T21:28:24.067Z,20.55
2022-10-15T21:33:26.851Z,19.07
2022-10-15T21:38:29.492Z,18.51
2022-10-15T21:43:32.244Z,20.03
2022-10-15T21:48:36.805Z,20.50
2022-10-15T21:53:40.192Z,18.90
2022-10-15T21:58:43.338Z,18.46
2022-10-15T22:03:46.786Z,20.05
2022-10-15T22:08:49.945Z,20.09
2022-10-15T22:13:56.527Z,18.35
2022-10-15T22:18:59.255Z,19.28
2022-10-15T22:24:05.441Z,20.50
2022-10-15T22:29:11.043Z,19.90
2022-10-15T22:34:14.028Z,18.09
2022-10-15T22:39:18.147Z,18.85
2022-10-15T22:44:21.445Z,20.24
2022-10-15T22:49:25.643Z,20.13
2022-10-15T22:54:28.323Z,18.36
2022-10-15T22:59:31.206Z,19.41
2022-10-15T23:04:33.866Z,20.41
2022-10-15T23:09:36.539Z,20.09
2022-10-15T23:14:42.010Z,18.57
2022-10-15T23:19:44.696Z,19.77
2022-10-15T23:24:47.376Z,20.47
2022-10-15T23:29:56.905Z,19.92
2022-10-15T23:35:11.959Z,18.92
2022-10-15T23:40:14.737Z,20.07
2022-10-15T23:45:17.751Z,20.58
2022-10-15T23:50:20.420Z,20.82
2022-10-15T23:55:23.064Z,21.00
